Time;durP1;ratioP1;P1;durP2;ratioP2;P2;SDS_P1;SDS_P2;PMS_P1;PMS_P2;Temp;Humidity;BMP_temperature;BMP_pressure;BME280_temperature;BME280_humidity;BME280_pressure;Samples;Min_cycle;Max_cycle;Signal;HPM_P1;HPM_P2
2023/07/28 04:01:18;;;;;;;0.47;0.47;;;17.40;99.90;;;;;;5489010;23;20532;-70
2023/07/28 04:03:44;;;;;;;0.97;0.97;;;17.30;99.90;;;;;;4913006;29;20474;-69
2023/07/28 04:06:12;;;;;;;0.60;0.60;;;17.30;99.90;;;;;;4928576;29;20805;-69
2023/07/28 04:08:39;;;;;;;0.53;0.50;;;17.40;99.90;;;;;;4921905;29;20548;-69
2023/07/28 04:11:05;;;;;;;0.90;0.90;;;17.40;99.90;;;;;;4908636;29;20587;-69
2023/07/28 04:13:34;;;;;;;1.03;1.03;;;17.40;99.90;;;;;;4908584;29;20973;-69
2023/07/28 04:16:01;;;;;;;3.43;0.50;;;17.40;99.90;;;;;;4904199;29;20550;-69
2023/07/28 04:18:29;;;;;;;0.70;0.70;;;17.40;99.90;;;;;;4904235;29;20479;-69
2023/07/28 04:20:56;;;;;;;0.87;0.87;;;17.40;99.90;;;;;;4905402;29;20825;-69
2023/07/28 04:23:22;;;;;;;0.93;0.93;;;17.40;99.90;;;;;;4899575;29;20489;-69
2023/07/28 04:25:49;;;;;;;1.53;1.53;;;17.40;99.90;;;;;;4912943;29;20469;-69
2023/07/28 04:28:16;;;;;;;0.80;0.80;;;17.40;99.90;;;;;;4899089;29;20490;-69
2023/07/28 04:30:42;;;;;;;2.03;0.90;;;17.40;99.90;;;;;;4903886;29;20637;-69
2023/07/28 04:33:09;;;;;;;2.37;0.70;;;17.40;99.90;;;;;;4897597;29;20475;-69
2023/07/28 04:35:37;;;;;;;1.43;1.40;;;17.40;99.90;;;;;;4909095;29;20469;-69
2023/07/28 04:38:04;;;;;;;2.83;1.70;;;17.50;99.90;;;;;;4912082;29;20522;-70
2023/07/28 04:40:30;;;;;;;0.63;0.63;;;17.50;99.90;;;;;;4894387;29;20826;-69
2023/07/28 04:42:57;;;;;;;0.53;0.53;;;17.40;99.90;;;;;;4911191;29;20501;-69
2023/07/28 04:45:24;;;;;;;0.50;0.50;;;17.40;99.90;;;;;;4908116;29;20470;-68
2023/07/28 04:47:50;;;;;;;1.53;1.43;;;17.30;99.90;;;;;;4902838;29;21028;-68
2023/07/28 04:50:17;;;;;;;0.60;0.60;;;17.40;99.90;;;;;;4908834;29;20478;-69
2023/07/28 04:52:45;;;;;;;1.00;1.00;;;17.30;99.90;;;;;;4912420;29;20470;-68
2023/07/28 04:55:12;;;;;;;0.80;0.80;;;17.40;99.90;;;;;;4905127;29;20483;-69
2023/07/28 04:57:38;;;;;;;1.73;1.63;;;17.40;99.90;;;;;;4898428;29;20576;-70
2023/07/28 05:00:06;;;;;;;0.97;0.97;;;17.30;99.90;;;;;;4902176;29;20482;-70
2023/07/28 05:02:33;;;;;;;0.77;0.77;;;17.30;99.90;;;;;;4902139;29;20496;-70
2023/07/28 05:05:00;;;;;;;0.87;0.87;;;17.20;99.90;;;;;;4907565;29;20901;-70
2023/07/28 05:07:28;;;;;;;1.03;1.03;;;17.20;99.90;;;;;;4906226;29;20493;-69
2023/07/28 05:09:56;;;;;;;1.10;1.10;;;17.20;99.90;;;;;;4903586;29;20471;-69
2023/07/28 05:12:23;;;;;;;0.77;0.77;;;17.20;99.90;;;;;;4892824;29;20499;-69
2023/07/28 05:14:50;;;;;;;0.93;0.93;;;17.20;99.90;;;;;;4892701;29;20483;-69
2023/07/28 05:17:16;;;;;;;1.27;1.27;;;17.10;99.90;;;;;;4892075;29;20936;-68
2023/07/28 05:19:43;;;;;;;1.20;1.20;;;17.10;99.90;;;;;;4908359;29;20581;-69
2023/07/28 05:22:10;;;;;;;1.07;1.07;;;17.10;99.90;;;;;;4894557;29;20491;-69
2023/07/28 05:24:36;;;;;;;2.53;2.43;;;17.10;99.90;;;;;;4905133;29;20471;-69
2023/07/28 05:27:05;;;;;;;2.00;2.00;;;17.10;99.90;;;;;;4896806;29;20467;-69
2023/07/28 05:29:32;;;;;;;1.33;1.33;;;17.10;99.90;;;;;;4894893;29;20542;-70
2023/07/28 05:31:59;;;;;;;1.27;1.27;;;17.10;99.90;;;;;;4895716;29;20487;-70
2023/07/28 05:34:26;;;;;;;1.00;1.00;;;17.20;99.90;;;;;;4903042;29;20466;-69
2023/07/28 05:36:52;;;;;;;1.63;1.37;;;17.20;99.90;;;;;;4909535;29;20463;-69
2023/07/28 05:39:19;;;;;;;0.60;0.60;;;17.30;99.90;;;;;;4897907;29;20558;-70
2023/07/28 05:41:46;;;;;;;0.50;0.50;;;17.30;99.90;;;;;;4895615;29;20502;-70
2023/07/28 05:44:14;;;;;;;0.40;0.40;;;17.30;99.90;;;;;;4903620;29;20470;-69
2023/07/28 05:46:41;;;;;;;0.50;0.50;;;17.30;99.90;;;;;;4904871;29;20865;-70
2023/07/28 05:49:07;;;;;;;0.50;0.50;;;17.20;99.90;;;;;;4902127;29;20478;-69
2023/07/28 05:51:34;;;;;;;0.30;0.30;;;17.20;99.90;;;;;;4907272;29;20600;-69
2023/07/28 05:54:01;;;;;;;0.67;0.67;;;17.20;99.90;;;;;;4894566;29;20494;-70
2023/07/28 05:56:27;;;;;;;0.50;0.50;;;17.20;99.90;;;;;;4897219;29;20493;-70
2023/07/28 05:58:54;;;;;;;0.40;0.40;;;17.30;99.90;;;;;;4904425;29;20474;-70
2023/07/28 06:01:22;;;;;;;0.70;0.70;;;17.30;99.90;;;;;;4896979;29;20499;-70
2023/07/28 06:03:49;;;;;;;0.60;0.60;;;17.40;99.90;;;;;;4895816;29;20987;-70
2023/07/28 06:06:16;;;;;;;0.77;0.77;;;17.60;99.90;;;;;;4907633;29;20472;-70
2023/07/28 06:08:43;;;;;;;0.70;0.70;;;17.60;99.90;;;;;;4903470;29;20514;-70
2023/07/28 06:11:09;;;;;;;0.40;0.40;;;17.70;99.90;;;;;;4894939;29;20491;-70
2023/07/28 06:13:36;;;;;;;0.60;0.60;;;17.80;99.90;;;;;;4899077;29;20484;-69
2023/07/28 06:16:03;;;;;;;0.73;0.73;;;17.80;99.90;;;;;;4904535;29;20475;-69
2023/07/28 06:18:31;;;;;;;0.90;0.90;;;17.90;99.90;;;;;;4903476;29;20476;-69
2023/07/28 06:20:58;;;;;;;0.43;0.43;;;18.00;99.90;;;;;;4905122;29;20497;-69
2023/07/28 06:23:24;;;;;;;1.07;1.07;;;17.90;99.90;;;;;;4906750;29;20503;-69
2023/07/28 06:25:51;;;;;;;0.80;0.80;;;18.00;99.90;;;;;;4902802;29;20559;-70
2023/07/28 06:28:18;;;;;;;0.90;0.90;;;18.10;99.90;;;;;;4902351;29;21037;-69
2023/07/28 06:30:45;;;;;;;0.80;0.80;;;18.10;99.90;;;;;;4903084;29;20497;-69
2023/07/28 06:33:11;;;;;;;0.87;0.87;;;18.10;99.90;;;;;;4892924;29;20492;-69
2023/07/28 06:35:39;;;;;;;0.47;0.47;;;18.20;99.90;;;;;;4892449;29;20471;-69
2023/07/28 06:38:06;;;;;;;0.77;0.77;;;18.30;99.90;;;;;;4895294;29;20974;-70
2023/07/28 06:40:33;;;;;;;0.63;0.63;;;18.30;99.90;;;;;;4907020;29;20482;-69
2023/07/28 06:42:59;;;;;;;0.70;0.70;;;18.20;99.90;;;;;;4905818;29;20494;-69
2023/07/28 06:45:26;;;;;;;0.57;0.57;;;18.20;99.90;;;;;;4899167;29;20466;-69
2023/07/28 06:47:53;;;;;;;1.00;0.97;;;18.20;99.90;;;;;;4889730;29;20976;-69
2023/07/28 06:50:20;;;;;;;0.70;0.70;;;18.30;99.90;;;;;;4892542;29;20554;-70
2023/07/28 06:52:49;;;;;;;0.83;0.83;;;18.30;99.90;;;;;;4893559;29;20882;-69
2023/07/28 06:55:16;;;;;;;0.60;0.60;;;18.30;99.90;;;;;;4893906;29;20478;-69
2023/07/28 06:57:43;;;;;;;1.10;1.10;;;18.30;99.90;;;;;;4895412;29;20978;-69
2023/07/28 07:00:11;;;;;;;10.20;1.00;;;18.50;99.90;;;;;;4895947;29;20531;-69
2023/07/28 07:02:38;;;;;;;0.80;0.80;;;18.50;99.90;;;;;;4892916;29;20491;-69
2023/07/28 07:05:06;;;;;;;0.60;0.60;;;18.40;99.90;;;;;;4903164;29;20472;-67
2023/07/28 07:07:33;;;;;;;0.50;0.50;;;18.50;99.90;;;;;;4902239;29;20467;-68
2023/07/28 07:10:01;;;;;;;0.70;0.70;;;18.60;99.90;;;;;;4893710;29;20467;-67
2023/07/28 07:12:28;;;;;;;0.90;0.90;;;18.70;99.90;;;;;;4893360;29;20559;-68
2023/07/28 07:14:55;;;;;;;1.00;1.00;;;18.80;99.90;;;;;;4892528;29;20531;-67
2023/07/28 07:17:21;;;;;;;0.87;0.87;;;18.80;99.90;;;;;;4894601;29;20491;-68
2023/07/28 07:19:48;;;;;;;0.80;0.80;;;18.80;99.90;;;;;;4909729;29;20523;-68
2023/07/28 07:22:15;;;;;;;1.00;1.00;;;18.90;99.90;;;;;;4903477;29;20499;-68
2023/07/28 07:24:42;;;;;;;1.10;1.10;;;18.90;99.90;;;;;;4896897;29;20474;-68
2023/07/28 07:27:10;;;;;;;0.73;0.73;;;19.00;99.90;;;;;;4896433;29;20477;-68
2023/07/28 07:29:38;;;;;;;0.83;0.83;;;19.10;99.90;;;;;;4899785;29;20813;-68
2023/07/28 07:32:05;;;;;;;1.17;1.17;;;19.00;99.90;;;;;;4895426;29;20490;-68
2023/07/28 07:34:34;;;;;;;1.30;1.30;;;19.10;99.90;;;;;;4897607;29;20466;-68
2023/07/28 07:37:01;;;;;;;1.03;1.03;;;19.10;99.90;;;;;;4902524;29;20482;-67
2023/07/28 07:39:27;;;;;;;0.53;0.53;;;19.10;99.90;;;;;;4899364;29;20578;-68
2023/07/28 07:41:54;;;;;;;1.63;1.53;;;19.20;99.90;;;;;;4895436;29;20858;-69
2023/07/28 07:44:22;;;;;;;1.17;1.17;;;19.20;99.90;;;;;;4899091;29;20468;-68
2023/07/28 07:46:49;;;;;;;0.80;0.80;;;19.10;99.90;;;;;;4901675;29;20551;-68
2023/07/28 07:49:16;;;;;;;1.03;1.03;;;19.10;99.90;;;;;;4898565;29;20505;-68
2023/07/28 07:51:42;;;;;;;1.70;1.70;;;19.20;99.90;;;;;;4888728;29;20880;-68
2023/07/28 07:54:09;;;;;;;0.90;0.90;;;19.20;99.90;;;;;;4896873;29;21531;-69
2023/07/28 07:56:36;;;;;;;1.00;1.00;;;19.20;99.90;;;;;;4900058;29;20474;-68
2023/07/28 07:59:03;;;;;;;1.03;1.03;;;19.20;99.90;;;;;;4905302;29;21393;-68
2023/07/28 08:01:31;;;;;;;1.30;1.30;;;19.20;99.90;;;;;;4898016;29;20604;-68
2023/07/28 08:03:57;;;;;;;1.70;1.60;;;19.30;99.90;;;;;;4905573;29;20556;-68
2023/07/28 08:06:24;;;;;;;1.30;1.30;;;19.50;99.90;;;;;;4904339;29;20478;-68
2023/07/28 08:08:52;;;;;;;1.23;1.23;;;19.60;99.90;;;;;;4895167;29;20548;-68
2023/07/28 08:11:19;;;;;;;1.50;1.40;;;19.50;99.90;;;;;;4894053;29;20598;-69
2023/07/28 08:13:48;;;;;;;1.20;1.20;;;19.50;99.90;;;;;;4907331;29;20951;-67
2023/07/28 08:16:15;;;;;;;1.30;1.30;;;19.40;99.90;;;;;;4908244;29;20479;-70
2023/07/28 08:18:43;;;;;;;1.57;1.50;;;19.50;99.90;;;;;;4900892;29;20481;-68
2023/07/28 08:21:09;;;;;;;2.00;1.90;;;19.50;99.90;;;;;;4903951;29;20500;-68
2023/07/28 08:23:36;;;;;;;1.43;1.33;;;19.50;99.90;;;;;;4905959;29;20503;-68
2023/07/28 08:26:03;;;;;;;1.70;1.70;;;19.40;99.90;;;;;;4896602;29;20537;-68
2023/07/28 08:28:30;;;;;;;1.53;1.53;;;19.40;99.90;;;;;;4900633;29;20469;-68
2023/07/28 08:30:57;;;;;;;1.50;1.50;;;19.40;99.90;;;;;;4902530;29;20484;-68
2023/07/28 08:33:24;;;;;;;1.50;1.47;;;19.50;99.90;;;;;;4902952;29;20489;-68
2023/07/28 08:35:52;;;;;;;1.47;1.47;;;19.50;99.90;;;;;;4901603;29;20508;-68
2023/07/28 08:38:19;;;;;;;1.20;1.20;;;19.40;99.90;;;;;;4899045;29;20539;-68
2023/07/28 08:40:46;;;;;;;1.17;1.17;;;19.40;99.90;;;;;;4889018;29;21011;-67
2023/07/28 08:43:12;;;;;;;1.53;1.53;;;19.40;99.90;;;;;;4909539;29;20497;-70
2023/07/28 08:45:39;;;;;;;1.13;1.13;;;19.40;99.90;;;;;;4905689;29;20527;-69
2023/07/28 08:48:06;;;;;;;1.20;1.20;;;19.60;99.90;;;;;;4897308;29;20469;-67
2023/07/28 08:50:34;;;;;;;1.43;1.43;;;19.60;99.90;;;;;;4896044;29;20573;-68
2023/07/28 08:53:02;;;;;;;0.93;0.93;;;19.70;99.90;;;;;;4905677;29;20501;-68
2023/07/28 08:55:28;;;;;;;2.00;1.23;;;19.70;99.90;;;;;;4897651;29;20474;-68
2023/07/28 08:57:55;;;;;;;1.70;1.70;;;19.70;99.90;;;;;;4897258;29;20621;-69
2023/07/28 09:00:24;;;;;;;1.73;1.63;;;19.70;99.90;;;;;;4916606;29;20517;-69
2023/07/28 09:02:52;;;;;;;2.30;1.60;;;19.80;99.90;;;;;;4905019;29;20976;-68
2023/07/28 09:05:20;;;;;;;0.90;0.90;;;19.80;99.90;;;;;;4900993;29;20473;-69
2023/07/28 09:07:47;;;;;;;1.30;1.30;;;19.70;99.90;;;;;;4903915;29;20901;-69
2023/07/28 09:10:15;;;;;;;1.47;1.40;;;19.60;99.90;;;;;;4899376;29;20476;-70
2023/07/28 09:12:49;;;;;;;1.80;1.77;;;19.60;99.90;;;;;;4916187;29;20462;-69
2023/07/28 09:15:17;;;;;;;1.03;1.03;;;19.60;99.90;;;;;;4916282;29;20854;-69
2023/07/28 09:17:44;;;;;;;1.03;1.03;;;19.70;99.90;;;;;;4909992;29;21052;-69
2023/07/28 09:20:14;;;;;;;1.30;1.30;;;19.90;99.90;;;;;;4904985;29;20491;-69
2023/07/28 09:22:41;;;;;;;2.17;2.07;;;20.00;99.90;;;;;;4897134;29;20687;-69
2023/07/28 09:25:15;;;;;;;1.80;1.80;;;20.10;99.90;;;;;;4897164;29;20473;-69
2023/07/28 09:27:49;;;;;;;1.03;1.03;;;20.20;99.90;;;;;;4895862;29;20577;-69
2023/07/28 09:30:17;;;;;;;1.33;1.33;;;20.20;99.90;;;;;;4914970;29;20465;-69
2023/07/28 09:32:49;;;;;;;1.73;1.73;;;20.20;99.90;;;;;;4909752;29;20983;-69
2023/07/28 09:35:16;;;;;;;1.77;1.77;;;20.50;99.90;;;;;;4896549;29;20470;-69
2023/07/28 09:37:44;;;;;;;1.20;1.20;;;20.60;99.90;;;;;;4901046;29;20474;-69
2023/07/28 09:40:13;;;;;;;1.00;1.00;;;20.60;99.90;;;;;;4893637;29;20476;-69
2023/07/28 09:42:41;;;;;;;1.23;1.20;;;20.60;99.90;;;;;;4895697;29;20487;-69
2023/07/28 09:45:10;;;;;;;1.53;1.53;;;20.50;99.90;;;;;;4902819;29;20886;-68
2023/07/28 09:47:37;;;;;;;1.40;1.40;;;20.40;99.90;;;;;;4896542;29;20562;-68
2023/07/28 09:50:06;;;;;;;0.80;0.80;;;20.50;99.90;;;;;;4902832;29;20478;-68
2023/07/28 09:52:38;;;;;;;2.07;2.07;;;20.40;99.90;;;;;;4903093;29;20846;-68
2023/07/28 09:55:08;;;;;;;1.23;1.23;;;20.30;99.90;;;;;;4903096;29;20473;-68
2023/07/28 09:57:39;;;;;;;1.20;1.20;;;20.40;99.90;;;;;;4898714;29;20471;-68
2023/07/28 10:00:11;;;;;;;1.30;1.30;;;20.50;99.90;;;;;;4896667;29;20493;-68
2023/07/28 10:02:38;;;;;;;1.60;1.50;;;20.60;99.90;;;;;;4893954;29;20573;-69
2023/07/28 10:05:06;;;;;;;0.97;0.97;;;20.50;99.90;;;;;;4900149;29;20740;-69
2023/07/28 10:07:34;;;;;;;1.10;1.10;;;20.30;99.90;;;;;;4901974;29;20529;-70
2023/07/28 10:10:02;;;;;;;1.80;1.80;;;20.20;99.90;;;;;;4904354;29;20852;-70
2023/07/28 10:12:29;;;;;;;1.37;1.37;;;20.20;99.90;;;;;;4896101;29;20494;-69
2023/07/28 10:15:02;;;;;;;1.87;1.87;;;20.30;99.90;;;;;;4919698;23;20443;-68
2023/07/28 10:17:34;;;;;;;1.70;1.60;;;20.30;99.90;;;;;;4892725;29;20484;-69
2023/07/28 10:22:44;;;;;;;1.60;1.60;;;20.20;99.90;;;;;;4913102;29;20478;-70
2023/07/28 10:25:11;;;;;;;1.37;1.37;;;20.40;99.90;;;;;;4912979;29;20937;-71
2023/07/28 10:27:40;;;;;;;1.20;1.20;;;20.50;99.90;;;;;;4914518;29;20977;-70
2023/07/28 10:30:12;;;;;;;1.20;1.20;;;20.50;99.90;;;;;;4912348;29;20573;-71
2023/07/28 10:32:43;;;;;;;1.80;1.80;;;20.50;99.90;;;;;;4904498;29;20537;-71
2023/07/28 10:35:11;;;;;;;1.17;1.17;;;20.50;99.90;;;;;;4905763;29;20662;-71
2023/07/28 10:37:38;;;;;;;0.97;0.97;;;20.50;99.90;;;;;;4903416;29;20550;-71
2023/07/28 10:40:27;;;;;;;1.20;1.20;;;20.50;99.90;;;;;;4897717;29;20477;-69
2023/07/28 10:42:55;;;;;;;1.23;1.23;;;20.60;99.90;;;;;;4901620;29;20492;-68
2023/07/28 10:45:24;;;;;;;1.37;1.37;;;20.70;99.90;;;;;;4913527;29;20508;-70
2023/07/28 10:47:55;;;;;;;1.57;1.57;;;20.70;99.90;;;;;;4900225;29;20565;-70
2023/07/28 10:50:22;;;;;;;3.93;1.77;;;20.90;99.90;;;;;;4914129;29;20504;-70
2023/07/28 10:52:49;;;;;;;1.07;0.80;;;21.20;99.90;;;;;;4906735;29;20823;-70
2023/07/28 10:55:17;;;;;;;0.77;0.77;;;21.60;99.90;;;;;;4914284;29;20495;-69
2023/07/28 10:57:46;;;;;;;1.10;1.10;;;21.90;99.90;;;;;;4899255;29;20952;-69
2023/07/28 11:00:15;;;;;;;1.00;1.00;;;22.10;99.90;;;;;;4907670;29;20470;-68
2023/07/28 11:02:43;;;;;;;0.90;0.90;;;22.20;99.90;;;;;;4905050;29;20838;-69
2023/07/28 11:05:19;;;;;;;1.00;1.00;;;22.40;99.90;;;;;;4909631;29;20535;-68
2023/07/28 11:07:46;;;;;;;1.10;1.10;;;22.20;99.90;;;;;;4910361;29;20486;-69
2023/07/28 11:10:15;;;;;;;1.27;1.27;;;21.90;99.90;;;;;;4896062;29;20821;-69
2023/07/28 11:12:42;;;;;;;0.90;0.90;;;21.70;99.90;;;;;;4903071;29;20469;-72
2023/07/28 11:15:11;;;;;;;1.50;1.50;;;21.70;99.90;;;;;;4912221;29;20589;-73
2023/07/28 11:17:39;;;;;;;1.47;1.47;;;21.80;99.90;;;;;;4912835;29;20587;-71
2023/07/28 11:20:17;;;;;;;0.90;0.90;;;21.90;99.90;;;;;;4912584;29;20921;-72
2023/07/28 11:22:44;;;;;;;0.73;0.73;;;21.90;99.90;;;;;;4905734;29;20561;-72
2023/07/28 11:25:11;;;;;;;0.87;0.87;;;22.10;99.90;;;;;;4908470;29;20575;-71
2023/07/28 11:27:39;;;;;;;1.10;1.10;;;22.10;99.90;;;;;;4914327;29;20508;-71
2023/07/28 11:30:09;;;;;;;1.00;1.00;;;22.20;99.90;;;;;;4910359;29;20477;-70
2023/07/28 11:32:37;;;;;;;0.60;0.60;;;22.10;99.90;;;;;;4912450;29;20486;-72
2023/07/28 11:35:05;;;;;;;0.80;0.80;;;21.90;99.90;;;;;;4905455;29;20506;-70
2023/07/28 11:37:34;;;;;;;0.93;0.93;;;21.90;99.90;;;;;;4903961;29;20964;-71
2023/07/28 11:40:02;;;;;;;1.00;1.00;;;22.10;99.90;;;;;;4911853;29;20473;-71
2023/07/28 11:42:29;;;;;;;1.20;1.20;;;22.10;99.90;;;;;;4904604;29;20485;-71
2023/07/28 11:44:57;;;;;;;0.80;0.80;;;22.20;99.90;;;;;;4908800;29;20560;-72
2023/07/28 11:47:23;;;;;;;1.00;1.00;;;22.20;99.90;;;;;;4907631;29;20474;-70
2023/07/28 11:49:51;;;;;;;1.00;1.00;;;22.20;99.90;;;;;;4901765;29;20478;-71
2023/07/28 11:52:18;;;;;;;0.80;0.80;;;22.20;99.90;;;;;;4901809;29;20578;-71
2023/07/28 11:54:47;;;;;;;1.00;1.00;;;22.10;99.90;;;;;;4905801;29;20495;-72
2023/07/28 11:57:14;;;;;;;0.97;0.97;;;22.00;99.90;;;;;;4909008;29;20482;-70
2023/07/28 11:59:41;;;;;;;1.17;1.17;;;21.90;99.90;;;;;;4911599;29;20484;-70
2023/07/28 12:02:08;;;;;;;1.33;1.33;;;21.70;99.90;;;;;;4899139;29;20478;-70
2023/07/28 12:04:38;;;;;;;0.77;0.77;;;21.60;99.90;;;;;;4906954;29;20577;-71
2023/07/28 12:07:07;;;;;;;1.17;1.17;;;21.50;99.90;;;;;;4909330;29;20498;-70
2023/07/28 12:09:34;;;;;;;1.30;1.30;;;21.50;99.90;;;;;;4908480;29;20484;-70
2023/07/28 12:12:04;;;;;;;1.30;1.30;;;21.40;99.90;;;;;;4912401;29;20559;-71
2023/07/28 12:14:32;;;;;;;1.40;1.40;;;21.30;99.90;;;;;;4912617;29;20470;-71
2023/07/28 12:17:00;;;;;;;1.27;1.27;;;21.20;99.90;;;;;;4911744;29;20520;-72
2023/07/28 12:19:27;;;;;;;1.70;1.60;;;21.20;99.90;;;;;;4911699;29;20466;-72
2023/07/28 12:21:54;;;;;;;1.10;1.10;;;21.20;99.90;;;;;;4910717;29;20964;-71
2023/07/28 12:24:21;;;;;;;1.43;1.43;;;21.20;99.90;;;;;;4907151;29;20496;-71
2023/07/28 12:26:47;;;;;;;2.00;2.00;;;21.20;99.90;;;;;;4907618;29;20859;-72
2023/07/28 12:29:16;;;;;;;1.87;1.77;;;21.30;99.90;;;;;;4908640;29;20614;-70
2023/07/28 12:31:43;;;;;;;1.83;1.20;;;21.30;99.90;;;;;;4904075;29;20474;-71
2023/07/28 12:34:09;;;;;;;1.10;1.10;;;21.30;99.90;;;;;;4904386;29;20502;-72
2023/07/28 12:36:36;;;;;;;1.30;1.30;;;21.50;99.90;;;;;;4913920;29;20501;-71
2023/07/28 12:39:03;;;;;;;1.53;1.53;;;21.60;99.90;;;;;;4911684;29;20480;-73
2023/07/28 12:41:30;;;;;;;1.10;1.10;;;21.70;99.90;;;;;;4914065;29;20965;-71
2023/07/28 12:43:56;;;;;;;1.00;1.00;;;21.80;99.90;;;;;;4912496;29;20494;-72
2023/07/28 12:46:25;;;;;;;1.40;1.40;;;21.90;99.90;;;;;;4906468;29;20487;-72
2023/07/28 12:48:51;;;;;;;1.70;1.70;;;21.80;99.90;;;;;;4906719;29;20483;-73
2023/07/28 12:51:18;;;;;;;1.83;1.73;;;21.80;99.90;;;;;;4902605;29;20860;-72
2023/07/28 12:53:44;;;;;;;1.23;1.23;;;21.90;99.90;;;;;;4916529;29;20478;-72
2023/07/28 12:56:11;;;;;;;1.03;1.03;;;22.00;99.90;;;;;;4911787;29;20504;-72
2023/07/28 12:58:38;;;;;;;5.17;1.27;;;21.90;99.90;;;;;;4915908;29;20467;-71
2023/07/28 13:01:05;;;;;;;1.13;1.03;;;22.00;99.90;;;;;;4908053;29;20482;-72
2023/07/28 13:03:33;;;;;;;1.63;1.63;;;22.00;99.90;;;;;;4914757;29;20992;-73
2023/07/28 13:06:00;;;;;;;1.27;1.27;;;22.10;99.90;;;;;;4915412;29;20483;-74
2023/07/28 13:08:26;;;;;;;1.47;1.47;;;22.20;99.90;;;;;;4906382;29;20568;-71
2023/07/28 13:10:53;;;;;;;2.43;1.57;;;22.20;99.90;;;;;;4914694;29;20496;-73
2023/07/28 13:13:20;;;;;;;1.17;1.17;;;22.40;99.90;;;;;;4915672;29;20467;-73
2023/07/28 13:15:46;;;;;;;1.57;1.57;;;22.40;99.90;;;;;;4910458;29;20529;-72
2023/07/28 13:18:13;;;;;;;3.23;1.37;;;22.50;99.90;;;;;;4902409;29;20970;-73
2023/07/28 13:20:41;;;;;;;1.47;1.47;;;22.40;99.90;;;;;;4899022;29;20484;-73
2023/07/28 13:23:08;;;;;;;2.13;2.03;;;22.40;99.90;;;;;;4908636;29;20467;-73
2023/07/28 13:25:35;;;;;;;1.30;1.30;;;22.50;99.90;;;;;;4907453;29;20907;-72
2023/07/28 13:28:02;;;;;;;1.63;1.63;;;22.60;99.90;;;;;;4902498;29;20470;-73
2023/07/28 13:30:28;;;;;;;1.00;1.00;;;22.50;99.90;;;;;;4915694;29;20527;-74
2023/07/28 13:32:55;;;;;;;1.53;1.53;;;22.50;99.90;;;;;;4911849;29;20480;-72
2023/07/28 13:35:22;;;;;;;1.20;1.20;;;22.70;99.90;;;;;;4914160;29;20496;-72
2023/07/28 13:37:50;;;;;;;1.00;1.00;;;22.80;99.90;;;;;;4910158;29;20537;-73
2023/07/28 13:40:17;;;;;;;1.10;1.10;;;22.90;99.90;;;;;;4914301;29;20581;-72
2023/07/28 13:42:44;;;;;;;1.73;1.73;;;23.00;99.90;;;;;;4906108;29;20513;-72
2023/07/28 13:45:11;;;;;;;1.60;1.60;;;23.00;99.90;;;;;;4913756;29;20501;-72
2023/07/28 13:47:37;;;;;;;1.40;1.30;;;23.10;99.90;;;;;;4908899;29;20489;-72
2023/07/28 13:50:05;;;;;;;1.13;1.13;;;23.30;99.90;;;;;;4912478;29;20841;-72
2023/07/28 13:52:31;;;;;;;1.20;1.20;;;23.40;99.90;;;;;;4906556;29;20477;-71
2023/07/28 13:54:59;;;;;;;0.70;0.70;;;23.40;99.90;;;;;;4909881;29;20953;-71
2023/07/28 13:57:27;;;;;;;0.97;0.97;;;23.30;99.90;;;;;;4908612;29;20471;-72
2023/07/28 13:59:54;;;;;;;1.17;1.17;;;23.20;99.90;;;;;;4912896;29;20833;-71
2023/07/28 14:02:20;;;;;;;0.97;0.97;;;23.00;99.90;;;;;;4911380;29;20473;-71
2023/07/28 14:04:47;;;;;;;0.67;0.67;;;23.00;99.90;;;;;;4902111;29;20508;-71
2023/07/28 14:07:14;;;;;;;0.80;0.80;;;23.10;99.90;;;;;;4914930;29;20478;-71
2023/07/28 14:09:41;;;;;;;1.27;1.27;;;23.20;99.90;;;;;;4914521;29;20481;-71
2023/07/28 14:12:09;;;;;;;1.20;1.13;;;23.40;99.90;;;;;;4906436;29;20554;-71
2023/07/28 14:14:36;;;;;;;0.80;0.80;;;23.40;99.90;;;;;;4906248;29;20950;-70
2023/07/28 14:17:03;;;;;;;1.10;1.10;;;23.50;99.90;;;;;;4914335;29;20482;-71
2023/07/28 14:19:29;;;;;;;0.80;0.80;;;23.50;99.90;;;;;;4902832;29;20468;-71
2023/07/28 14:21:56;;;;;;;1.10;1.10;;;23.60;99.90;;;;;;4902917;29;20977;-71
2023/07/28 14:24:23;;;;;;;0.67;0.67;;;23.70;99.90;;;;;;4905062;29;20502;-71
2023/07/28 14:26:49;;;;;;;0.70;0.70;;;23.90;99.90;;;;;;4906700;29;20999;-71
2023/07/28 14:29:17;;;;;;;0.50;0.50;;;24.10;99.90;;;;;;4908639;29;20917;-72
2023/07/28 14:31:44;;;;;;;0.70;0.70;;;24.20;99.90;;;;;;4909986;29;20480;-72
2023/07/28 14:34:11;;;;;;;0.60;0.50;;;24.10;99.90;;;;;;4901407;29;20559;-71
2023/07/28 14:36:38;;;;;;;0.80;0.80;;;24.00;99.90;;;;;;4911921;29;20829;-71
2023/07/28 14:39:04;;;;;;;0.40;0.40;;;23.80;99.90;;;;;;4897737;29;20942;-71
2023/07/28 14:41:31;;;;;;;1.10;1.10;;;23.50;99.90;;;;;;4908041;29;20534;-71
2023/07/28 14:43:58;;;;;;;0.70;0.70;;;23.40;99.90;;;;;;4903823;29;20471;-71
2023/07/28 14:46:26;;;;;;;1.07;1.07;;;23.30;99.90;;;;;;4909210;29;20505;-71
2023/07/28 14:48:53;;;;;;;0.67;0.67;;;23.20;99.90;;;;;;4894329;29;20504;-71
2023/07/28 14:51:20;;;;;;;0.80;0.80;;;23.00;99.90;;;;;;4904852;29;20481;-72
2023/07/28 14:53:47;;;;;;;0.70;0.70;;;22.80;99.90;;;;;;4914450;29;20468;-71
2023/07/28 14:56:14;;;;;;;0.87;0.87;;;22.80;99.90;;;;;;4897348;29;20485;-70
2023/07/28 14:58:41;;;;;;;0.60;0.60;;;23.00;99.90;;;;;;4909436;29;20837;-71
2023/07/28 15:01:10;;;;;;;1.00;1.00;;;23.00;99.90;;;;;;4908492;29;20477;-73
2023/07/28 15:03:38;;;;;;;0.90;0.90;;;23.20;99.90;;;;;;4908105;29;20563;-71
2023/07/28 15:06:05;;;;;;;1.00;1.00;;;23.30;99.90;;;;;;4910432;29;20499;-71
2023/07/28 15:08:31;;;;;;;0.83;0.83;;;23.40;99.90;;;;;;4899042;29;20521;-71
2023/07/28 15:10:59;;;;;;;0.63;0.63;;;23.30;99.90;;;;;;4900934;29;20508;-72
2023/07/28 15:13:25;;;;;;;0.73;0.73;;;23.30;99.90;;;;;;4908052;29;21251;-72
2023/07/28 15:15:52;;;;;;;0.50;0.50;;;23.30;99.90;;;;;;4903456;29;20492;-71
2023/07/28 15:18:19;;;;;;;0.70;0.70;;;23.30;99.90;;;;;;4913451;29;20472;-72
2023/07/28 15:20:47;;;;;;;0.90;0.90;;;23.40;99.90;;;;;;4897737;29;20852;-71
2023/07/28 15:23:14;;;;;;;0.70;0.70;;;23.20;99.90;;;;;;4911943;29;20477;-70
2023/07/28 15:25:42;;;;;;;0.60;0.60;;;23.20;99.90;;;;;;4910598;29;20497;-71
2023/07/28 15:28:10;;;;;;;0.63;0.63;;;23.30;99.90;;;;;;4911590;29;20579;-71
2023/07/28 15:30:37;;;;;;;0.50;0.50;;;23.40;99.90;;;;;;4905890;29;20819;-71
2023/07/28 15:33:03;;;;;;;0.70;0.70;;;23.40;99.90;;;;;;4911901;29;20483;-71
2023/07/28 15:35:30;;;;;;;0.60;0.60;;;23.50;99.90;;;;;;4906954;29;20522;-71
2023/07/28 15:37:58;;;;;;;0.40;0.40;;;23.50;99.90;;;;;;4905618;29;20494;-71
2023/07/28 15:40:25;;;;;;;0.50;0.50;;;23.60;99.90;;;;;;4905610;29;20986;-71
2023/07/28 15:42:51;;;;;;;0.50;0.50;;;23.70;99.90;;;;;;4909723;29;20860;-72
2023/07/28 15:45:18;;;;;;;0.37;0.37;;;23.70;99.90;;;;;;4913045;29;20501;-71
2023/07/28 15:47:45;;;;;;;0.50;0.50;;;23.70;99.90;;;;;;4904837;29;20476;-71
2023/07/28 15:50:11;;;;;;;0.57;0.57;;;23.70;99.90;;;;;;4899542;29;20531;-72
2023/07/28 15:52:38;;;;;;;0.50;0.50;;;23.70;99.90;;;;;;4911065;29;20478;-72
2023/07/28 15:55:07;;;;;;;0.63;0.63;;;23.60;99.90;;;;;;4903870;29;20480;-73
2023/07/28 15:57:34;;;;;;;0.30;0.30;;;23.80;99.90;;;;;;4903498;29;20475;-72
2023/07/28 16:00:01;;;;;;;0.53;0.53;;;23.70;99.90;;;;;;4903540;29;20467;-72
2023/07/28 16:02:28;;;;;;;0.60;0.60;;;23.80;99.90;;;;;;4909760;29;20478;-71
2023/07/28 16:04:54;;;;;;;0.50;0.50;;;23.90;99.90;;;;;;4911343;29;20501;-72
2023/07/28 16:07:22;;;;;;;0.70;0.70;;;23.90;99.90;;;;;;4910953;29;20476;-71
2023/07/28 16:09:49;;;;;;;0.90;0.90;;;23.90;99.90;;;;;;4902756;29;20600;-70
2023/07/28 16:12:17;;;;;;;0.50;0.50;;;24.00;99.90;;;;;;4902316;29;20472;-73
2023/07/28 16:14:45;;;;;;;0.90;0.90;;;24.00;99.90;;;;;;4909403;29;20532;-70
2023/07/28 16:17:11;;;;;;;0.60;0.60;;;24.00;99.90;;;;;;4906124;29;20962;-72
2023/07/28 16:19:38;;;;;;;0.80;0.80;;;24.00;99.90;;;;;;4901541;29;20500;-73
2023/07/28 16:22:05;;;;;;;0.77;0.77;;;24.00;99.90;;;;;;4899882;29;20512;-70
2023/07/28 16:24:31;;;;;;;0.43;0.43;;;24.10;99.90;;;;;;4909391;29;20480;-70
2023/07/28 16:26:58;;;;;;;0.50;0.50;;;24.10;99.90;;;;;;4908599;29;20516;-71
2023/07/28 16:29:26;;;;;;;0.30;0.30;;;24.00;99.90;;;;;;4908632;29;20478;-71
2023/07/28 16:31:53;;;;;;;0.53;0.53;;;23.90;99.90;;;;;;4896566;29;20482;-72
2023/07/28 16:34:20;;;;;;;0.43;0.43;;;23.80;99.90;;;;;;4896603;29;20474;-68
2023/07/28 16:36:46;;;;;;;0.50;0.50;;;23.70;99.90;;;;;;4901821;29;20552;-71
2023/07/28 16:39:13;;;;;;;0.73;0.73;;;23.60;99.90;;;;;;4920321;23;20477;-69
2023/07/28 16:41:40;;;;;;;0.57;0.57;;;23.50;99.90;;;;;;4899578;29;20553;-70
2023/07/28 16:44:06;;;;;;;0.70;0.70;;;23.40;99.90;;;;;;4910374;29;20990;-70
2023/07/28 16:46:34;;;;;;;0.97;0.97;;;23.30;99.90;;;;;;4903275;29;20490;-70
2023/07/28 16:49:01;;;;;;;0.60;0.60;;;23.20;99.90;;;;;;4902620;29;20474;-70
2023/07/28 16:51:28;;;;;;;0.60;0.60;;;23.10;99.90;;;;;;4891111;29;20495;-69